KPBI/PBI METAR and TAF weather

Enter ICAO airport designator
Station Type Date Time Source
KPBI METAR 2020/08/15 09:53 UTC NOAA

KPBI 150953Z 00000KT 10SM CLR 27/24 A2996 RMK AO2 SLP143 T02720239 $


Station Type Date Time Source
KPBI Decoded METAR 2020/08/15 09:53 UTC NOAA

PALM BEACH INTERNATIONAL, FL, United States (KPBI) 26-41N 80-06W 6M
Aug 15, 2020 - 05:53 AM EDT / 2020.08.15 0953 UTC
Wind: Calm:0
Visibility: 10 mile(s):0
Sky conditions: clear
Temperature: 81.0 F (27.2 C)
Dew Point: 75.0 F (23.9 C)
Relative Humidity: 82%
Pressure (altimeter): 29.96 in. Hg (1014 hPa)
ob: KPBI 150953Z 00000KT 10SM CLR 27/24 A2996 RMK AO2 SLP143 T02720239
cycle: 10

Station Type Date Time Source
KPBI TAF 2020/08/15 09:59 UTC NOAA

TAF
AMD KPBI 150859Z 1509/1606 VRB03KT P6SM FEW030
FM151400 15010KT P6SM SCT035
FM160200 VRB03KT P6SM FEW035 SCT250

Example: see airport list